Carcarana, Argentina
Current Conditions -  °F | °C
As of 11:00 AM on Thursday 30 Oct 2014 (Local Time) from SAAR Reporting Station
Broken Clouds Broken Clouds  
Wind Chill: 70°   Ceiling: 10000
Heat Index: 70°   Visibility: 6mi
Dew Point: 57°   Wind: 8mph
Humidity: 64%   Direction: 90°E
Pressure: 29.85"   Gusts: NA
Location:  32.85°S, 61.15°W
Report Text: SAAR 301400Z 09007KT 9999 FEW024 BKN10021/14 Q1011
Loading
Personal Weather Stations






























Interactive Weather Map
Tropical Storm Tracking
New forecast layout! Learn more

10-Day Weather Forecast

Advertisements
Track Severe Weather on mobile